sensor_id;sensor_type;location;lat;lon;timestamp;pressure;altitude;pressure_sealevel;temperature;humidity
74561;BME280;62979;55.720;37.606;2022-10-17T00:01:15;100935.03;;;8.74;49.52
74561;BME280;62979;55.720;37.606;2022-10-17T00:03:42;100942.88;;;8.81;49.29
74561;BME280;62979;55.720;37.606;2022-10-17T00:06:11;100936.78;;;8.74;49.57
74561;BME280;62979;55.720;37.606;2022-10-17T00:08:41;100931.56;;;8.77;49.44
74561;BME280;62979;55.720;37.606;2022-10-17T00:11:13;100926.34;;;8.82;49.47
74561;BME280;62979;55.720;37.606;2022-10-17T00:13:42;100914.19;;;8.91;49.21
74561;BME280;62979;55.720;37.606;2022-10-17T00:16:10;100906.38;;;8.99;49.16
74561;BME280;62979;55.720;37.606;2022-10-17T00:18:38;100922.00;;;8.87;49.13
74561;BME280;62979;55.720;37.606;2022-10-17T00:21:14;100913.31;;;8.89;49.35
74561;BME280;62979;55.720;37.606;2022-10-17T00:23:42;100915.06;;;8.86;49.29
74561;BME280;62979;55.720;37.606;2022-10-17T00:26:09;100904.63;;;8.84;49.42
74561;BME280;62979;55.720;37.606;2022-10-17T00:28:36;100899.38;;;8.79;49.51
74561;BME280;62979;55.720;37.606;2022-10-17T00:31:05;100906.34;;;8.76;49.73
74561;BME280;62979;55.720;37.606;2022-10-17T00:33:34;100875.03;;;8.71;49.79
74561;BME280;62979;55.720;37.606;2022-10-17T00:36:04;100882.88;;;8.76;49.60
74561;BME280;62979;55.720;37.606;2022-10-17T00:38:33;100878.53;;;8.79;49.45
74561;BME280;62979;55.720;37.606;2022-10-17T00:41:01;100893.31;;;8.84;49.47
74561;BME280;62979;55.720;37.606;2022-10-17T00:43:28;100885.47;;;8.71;49.84
74561;BME280;62979;55.720;37.606;2022-10-17T00:46:14;100888.97;;;8.73;49.81
74561;BME280;62979;55.720;37.606;2022-10-17T00:48:41;100885.44;;;8.62;50.08
74561;BME280;62979;55.720;37.606;2022-10-17T00:51:10;100892.38;;;8.55;50.17
74561;BME280;62979;55.720;37.606;2022-10-17T00:53:38;100868.91;;;8.57;50.35
74561;BME280;62979;55.720;37.606;2022-10-17T00:56:06;100873.28;;;8.60;50.45
74561;BME280;62979;55.720;37.606;2022-10-17T00:58:33;100866.31;;;8.60;50.17
74561;BME280;62979;55.720;37.606;2022-10-17T01:01:02;100879.34;;;8.49;50.56
74561;BME280;62979;55.720;37.606;2022-10-17T01:03:29;100861.94;;;8.44;50.58
74561;BME280;62979;55.720;37.606;2022-10-17T01:05:56;100868.00;;;8.43;50.84
74561;BME280;62979;55.720;37.606;2022-10-17T01:08:24;100859.25;;;8.33;50.89
74561;BME280;62979;55.720;37.606;2022-10-17T01:10:57;100847.97;;;8.37;51.00
74561;BME280;62979;55.720;37.606;2022-10-17T01:13:38;100836.72;;;8.40;50.84
74561;BME280;62979;55.720;37.606;2022-10-17T01:16:15;100833.22;;;8.39;50.95
74561;BME280;62979;55.720;37.606;2022-10-17T01:18:56;100834.97;;;8.40;51.13
74561;BME280;62979;55.720;37.606;2022-10-17T01:21:39;100836.66;;;8.27;51.31
74561;BME280;62979;55.720;37.606;2022-10-17T01:24:45;100836.63;;;8.29;51.95
74561;BME280;62979;55.720;37.606;2022-10-17T01:27:32;100811.50;;;8.34;51.61
74561;BME280;62979;55.720;37.606;2022-10-17T01:33:32;100810.59;;;8.33;51.49
74561;BME280;62979;55.720;37.606;2022-10-17T01:36:26;100807.13;;;8.38;51.58
74561;BME280;62979;55.720;37.606;2022-10-17T01:39:05;100799.34;;;8.39;51.67
74561;BME280;62979;55.720;37.606;2022-10-17T01:41:43;100793.28;;;8.40;51.50
74561;BME280;62979;55.720;37.606;2022-10-17T01:44:18;100790.69;;;8.42;51.46
74561;BME280;62979;55.720;37.606;2022-10-17T01:46:58;100765.41;;;8.21;51.43
74561;BME280;62979;55.720;37.606;2022-10-17T01:49:30;100799.34;;;8.39;51.36
74561;BME280;62979;55.720;37.606;2022-10-17T01:52:04;100784.56;;;8.35;51.15
74561;BME280;62979;55.720;37.606;2022-10-17T01:54:39;100788.91;;;8.34;51.75
74561;BME280;62979;55.720;37.606;2022-10-17T01:57:20;100778.47;;;8.30;51.84
74561;BME280;62979;55.720;37.606;2022-10-17T01:59:53;100781.94;;;8.35;51.88
74561;BME280;62979;55.720;37.606;2022-10-17T02:02:24;100764.63;;;8.46;51.71
74561;BME280;62979;55.720;37.606;2022-10-17T02:04:53;100771.56;;;8.47;51.28
74561;BME280;62979;55.720;37.606;2022-10-17T02:07:22;100752.44;;;8.41;51.22
74561;BME280;62979;55.720;37.606;2022-10-17T02:09:50;100777.69;;;8.59;51.10
74561;BME280;62979;55.720;37.606;2022-10-17T02:12:36;100777.66;;;8.62;51.42
74561;BME280;62979;55.720;37.606;2022-10-17T02:15:30;100789.81;;;8.63;51.11
74561;BME280;62979;55.720;37.606;2022-10-17T02:18:26;100778.53;;;8.57;51.06
74561;BME280;62979;55.720;37.606;2022-10-17T02:21:09;100779.38;;;8.40;51.47
74561;BME280;62979;55.720;37.606;2022-10-17T02:23:48;100781.94;;;8.35;51.42
74561;BME280;62979;55.720;37.606;2022-10-17T02:26:25;100770.63;;;8.36;51.76
74561;BME280;62979;55.720;37.606;2022-10-17T02:29:03;100750.66;;;8.26;51.82
74561;BME280;62979;55.720;37.606;2022-10-17T02:31:38;100779.38;;;8.40;51.92
74561;BME280;62979;55.720;37.606;2022-10-17T02:34:12;100769.84;;;8.46;51.71
74561;BME280;62979;55.720;37.606;2022-10-17T02:36:46;100781.03;;;8.31;51.94
74561;BME280;62979;55.720;37.606;2022-10-17T02:39:18;100771.47;;;8.17;51.98
74561;BME280;62979;55.720;37.606;2022-10-17T02:41:48;100749.75;;;8.21;52.23
74561;BME280;62979;55.720;37.606;2022-10-17T02:44:18;100768.00;;;8.18;52.18
74561;BME280;62979;55.720;37.606;2022-10-17T02:46:51;100786.22;;;8.10;52.73
74561;BME280;62979;55.720;37.606;2022-10-17T02:49:27;100741.94;;;8.05;52.70
74561;BME280;62979;55.720;37.606;2022-10-17T02:52:00;100737.53;;;7.86;53.32
74561;BME280;62979;55.720;37.606;2022-10-17T02:54:40;100747.13;;;7.98;53.02
74561;BME280;62979;55.720;37.606;2022-10-17T02:57:15;100747.97;;;8.04;52.97
74561;BME280;62979;55.720;37.606;2022-10-17T02:59:48;100740.16;;;7.97;53.30
74561;BME280;62979;55.720;37.606;2022-10-17T03:02:18;100740.19;;;8.07;53.14
74561;BME280;62979;55.720;37.606;2022-10-17T03:04:46;100728.91;;;8.10;52.88
74561;BME280;62979;55.720;37.606;2022-10-17T03:07:13;100730.63;;;8.14;53.01
74561;BME280;62979;55.720;37.606;2022-10-17T03:09:40;100738.44;;;8.06;52.83
74561;BME280;62979;55.720;37.606;2022-10-17T03:12:07;100735.84;;;8.05;53.16
74561;BME280;62979;55.720;37.606;2022-10-17T03:14:34;100724.53;;;8.09;53.02
74561;BME280;62979;55.720;37.606;2022-10-17T03:17:01;100730.63;;;8.14;52.48
74561;BME280;62979;55.720;37.606;2022-10-17T03:19:29;100724.56;;;8.07;52.54
74561;BME280;62979;55.720;37.606;2022-10-17T03:21:57;100727.16;;;8.03;52.91
74561;BME280;62979;55.720;37.606;2022-10-17T03:24:24;100708.00;;;7.94;53.16
74561;BME280;62979;55.720;37.606;2022-10-17T03:26:51;100705.44;;;7.96;53.08
74561;BME280;62979;55.720;37.606;2022-10-17T03:29:18;100700.22;;;8.04;53.07
74561;BME280;62979;55.720;37.606;2022-10-17T03:31:45;100689.81;;;8.04;53.40
74561;BME280;62979;55.720;37.606;2022-10-17T03:34:12;100689.81;;;8.11;53.07
74561;BME280;62979;55.720;37.606;2022-10-17T03:36:41;100682.88;;;8.13;52.76
74561;BME280;62979;55.720;37.606;2022-10-17T03:39:09;100675.06;;;8.26;52.56
74561;BME280;62979;55.720;37.606;2022-10-17T03:41:36;100681.13;;;8.22;52.31
74561;BME280;62979;55.720;37.606;2022-10-17T03:44:03;100681.16;;;8.26;52.31
74561;BME280;62979;55.720;37.606;2022-10-17T03:46:30;100682.03;;;8.33;52.30
74561;BME280;62979;55.720;37.606;2022-10-17T03:48:58;100679.41;;;8.33;52.20
74561;BME280;62979;55.720;37.606;2022-10-17T03:51:25;100680.28;;;8.33;52.18
74561;BME280;62979;55.720;37.606;2022-10-17T03:53:52;100674.19;;;8.36;52.21
74561;BME280;62979;55.720;37.606;2022-10-17T03:56:22;100661.22;;;8.42;51.85
74561;BME280;62979;55.720;37.606;2022-10-17T03:58:50;100681.19;;;8.45;51.75
74561;BME280;62979;55.720;37.606;2022-10-17T04:01:18;100683.81;;;8.40;51.99
74561;BME280;62979;55.720;37.606;2022-10-17T04:03:48;100683.81;;;8.48;51.88
74561;BME280;62979;55.720;37.606;2022-10-17T04:06:16;100682.94;;;8.53;51.48
74561;BME280;62979;55.720;37.606;2022-10-17T04:08:43;100667.31;;;8.53;51.65
74561;BME280;62979;55.720;37.606;2022-10-17T04:11:13;100662.09;;;8.56;51.62
74561;BME280;62979;55.720;37.606;2022-10-17T04:13:44;100651.66;;;8.56;51.40
74561;BME280;62979;55.720;37.606;2022-10-17T04:16:14;100661.22;;;8.64;51.11
74561;BME280;62979;55.720;37.606;2022-10-17T04:18:42;100669.03;;;8.67;51.16
74561;BME280;62979;55.720;37.606;2022-10-17T04:21:10;100673.38;;;8.69;51.20
74561;BME280;62979;55.720;37.606;2022-10-17T04:23:38;100649.94;;;8.46;51.51
74561;BME280;62979;55.720;37.606;2022-10-17T04:26:05;100659.47;;;8.52;51.64
74561;BME280;62979;55.720;37.606;2022-10-17T04:28:33;100642.97;;;8.42;51.54
74561;BME280;62979;55.720;37.606;2022-10-17T04:31:03;100643.84;;;8.52;51.74
74561;BME280;62979;55.720;37.606;2022-10-17T04:33:32;100636.88;;;8.49;51.80
74561;BME280;62979;55.720;37.606;2022-10-17T04:36:00;100639.50;;;8.46;51.95
74561;BME280;62979;55.720;37.606;2022-10-17T04:38:29;100647.31;;;8.54;51.65
74561;BME280;62979;55.720;37.606;2022-10-17T04:40:56;100631.66;;;8.54;51.60
74561;BME280;62979;55.720;37.606;2022-10-17T04:43:24;100627.31;;;8.54;51.82
74561;BME280;62979;55.720;37.606;2022-10-17T04:45:51;100635.16;;;8.56;51.66
74561;BME280;62979;55.720;37.606;2022-10-17T04:48:20;100629.91;;;8.57;51.63
74561;BME280;62979;55.720;37.606;2022-10-17T04:50:53;100634.28;;;8.59;51.74
74561;BME280;62979;55.720;37.606;2022-10-17T04:53:22;100634.25;;;8.62;51.55
74561;BME280;62979;55.720;37.606;2022-10-17T04:55:50;100622.06;;;8.70;51.27
74561;BME280;62979;55.720;37.606;2022-10-17T04:58:17;100629.88;;;8.77;51.15
74561;BME280;62979;55.720;37.606;2022-10-17T05:00:45;100616.00;;;8.65;51.30
74561;BME280;62979;55.720;37.606;2022-10-17T05:03:12;100625.53;;;8.75;51.42
74561;BME280;62979;55.720;37.606;2022-10-17T05:05:41;100618.59;;;8.77;51.37
74561;BME280;62979;55.720;37.606;2022-10-17T05:08:09;100613.38;;;8.74;51.39
74561;BME280;62979;55.720;37.606;2022-10-17T05:10:37;100630.75;;;8.81;51.26
74561;BME280;62979;55.720;37.606;2022-10-17T05:13:05;100620.31;;;8.76;51.32
74561;BME280;62979;55.720;37.606;2022-10-17T05:15:33;100607.28;;;8.72;51.21
74561;BME280;62979;55.720;37.606;2022-10-17T05:18:00;100607.28;;;8.86;51.22
74561;BME280;62979;55.720;37.606;2022-10-17T05:20:28;100615.06;;;8.93;51.38
74561;BME280;62979;55.720;37.606;2022-10-17T05:22:59;100609.84;;;8.93;51.24
74561;BME280;62979;55.720;37.606;2022-10-17T05:25:26;100609.84;;;8.93;50.72
74561;BME280;62979;55.720;37.606;2022-10-17T05:27:53;100588.13;;;8.88;51.20
74561;BME280;62979;55.720;37.606;2022-10-17T05:30:20;100573.34;;;8.90;51.18
74561;BME280;62979;55.720;37.606;2022-10-17T05:32:51;100583.75;;;8.96;51.01
74561;BME280;62979;55.720;37.606;2022-10-17T05:35:20;100601.19;;;8.85;51.21
74561;BME280;62979;55.720;37.606;2022-10-17T05:37:47;100593.41;;;8.71;51.59
74561;BME280;62979;55.720;37.606;2022-10-17T05:40:16;100602.06;;;8.81;51.51
74561;BME280;62979;55.720;37.606;2022-10-17T05:42:47;100589.03;;;8.78;51.41
74561;BME280;62979;55.720;37.606;2022-10-17T05:45:14;100592.47;;;8.89;51.20
74561;BME280;62979;55.720;37.606;2022-10-17T05:47:42;100582.88;;;8.94;51.05
74561;BME280;62979;55.720;37.606;2022-10-17T05:50:09;100564.59;;;9.10;51.08
74561;BME280;62979;55.720;37.606;2022-10-17T05:52:36;100562.75;;;9.21;50.93
74561;BME280;62979;55.720;37.606;2022-10-17T05:55:05;100550.63;;;9.14;50.98
74561;BME280;62979;55.720;37.606;2022-10-17T05:57:34;100534.09;;;9.13;50.61
74561;BME280;62979;55.720;37.606;2022-10-17T06:00:01;100539.31;;;9.19;50.41
74561;BME280;62979;55.720;37.606;2022-10-17T06:02:29;100553.16;;;9.28;50.49
74561;BME280;62979;55.720;37.606;2022-10-17T06:04:56;100542.75;;;9.21;50.90
74561;BME280;62979;55.720;37.606;2022-10-17T06:07:23;100543.63;;;9.22;51.14
74561;BME280;62979;55.720;37.606;2022-10-17T06:09:50;100559.28;;;9.25;50.75
74561;BME280;62979;55.720;37.606;2022-10-17T06:12:17;100559.28;;;9.25;51.02
74561;BME280;62979;55.720;37.606;2022-10-17T06:14:46;100554.06;;;9.25;50.98
74561;BME280;62979;55.720;37.606;2022-10-17T06:17:13;100558.44;;;9.18;51.01
74561;BME280;62979;55.720;37.606;2022-10-17T06:19:40;100556.75;;;9.08;51.05
74561;BME280;62979;55.720;37.606;2022-10-17T06:22:07;100547.19;;;9.06;51.26
74561;BME280;62979;55.720;37.606;2022-10-17T06:24:34;100543.63;;;9.20;50.92
74561;BME280;62979;55.720;37.606;2022-10-17T06:27:01;100555.81;;;9.20;51.22
74561;BME280;62979;55.720;37.606;2022-10-17T06:29:28;100573.31;;;9.03;50.76
74561;BME280;62979;55.720;37.606;2022-10-17T06:31:56;100561.16;;;8.95;51.16
74561;BME280;62979;55.720;37.606;2022-10-17T06:34:23;100556.75;;;9.04;51.07
74561;BME280;62979;55.720;37.606;2022-10-17T06:36:51;100556.78;;;9.05;50.91
74561;BME280;62979;55.720;37.606;2022-10-17T06:39:18;100554.19;;;9.00;51.29
74561;BME280;62979;55.720;37.606;2022-10-17T06:41:46;100582.00;;;9.03;51.00
74561;BME280;62979;55.720;37.606;2022-10-17T06:44:12;100570.72;;;8.98;51.02
74561;BME280;62979;55.720;37.606;2022-10-17T06:46:40;100562.91;;;8.87;51.14
74561;BME280;62979;55.720;37.606;2022-10-17T06:49:09;100511.66;;;8.83;51.05
74561;BME280;62979;55.720;37.606;2022-10-17T06:51:36;100519.41;;;9.00;51.34
74561;BME280;62979;55.720;37.606;2022-10-17T06:54:03;100513.19;;;9.16;51.20
74561;BME280;62979;55.720;37.606;2022-10-17T06:56:30;100510.53;;;9.30;50.75
74561;BME280;62979;55.720;37.606;2022-10-17T06:58:57;100513.03;;;9.47;51.15
74561;BME280;62979;55.720;37.606;2022-10-17T07:01:24;100520.84;;;9.52;50.88
74561;BME280;62979;55.720;37.606;2022-10-17T07:03:52;100530.44;;;9.45;50.07
74561;BME280;62979;55.720;37.606;2022-10-17T07:06:21;100533.03;;;9.50;50.07
74561;BME280;62979;55.720;37.606;2022-10-17T07:08:49;100511.31;;;9.45;50.28
74561;BME280;62979;55.720;37.606;2022-10-17T07:11:18;100520.03;;;9.42;50.31
74561;BME280;62979;55.720;37.606;2022-10-17T07:13:46;100525.19;;;9.50;50.17
74561;BME280;62979;55.720;37.606;2022-10-17T07:16:15;100521.66;;;9.57;50.06
74561;BME280;62979;55.720;37.606;2022-10-17T07:18:42;100521.56;;;9.71;49.69
74561;BME280;62979;55.720;37.606;2022-10-17T07:21:11;100522.56;;;9.54;49.65
74561;BME280;62979;55.720;37.606;2022-10-17T07:23:39;100536.63;;;9.32;50.28
74561;BME280;62979;55.720;37.606;2022-10-17T07:26:08;100506.97;;;9.40;50.32
74561;BME280;62979;55.720;37.606;2022-10-17T07:28:38;100512.31;;;9.22;50.67
74561;BME280;62979;55.720;37.606;2022-10-17T07:31:09;100506.28;;;9.17;51.18
74561;BME280;62979;55.720;37.606;2022-10-17T07:33:37;100494.84;;;9.29;50.94
74561;BME280;62979;55.720;37.606;2022-10-17T07:36:04;100525.28;;;9.33;50.89
74561;BME280;62979;55.720;37.606;2022-10-17T07:38:32;100504.38;;;9.36;50.97
74561;BME280;62979;55.720;37.606;2022-10-17T07:41:04;100503.59;;;9.23;51.28
74561;BME280;62979;55.720;37.606;2022-10-17T07:43:34;100494.03;;;9.27;51.10
74561;BME280;62979;55.720;37.606;2022-10-17T07:46:02;100513.13;;;9.29;51.31
74561;BME280;62979;55.720;37.606;2022-10-17T07:48:30;100515.81;;;9.18;51.43
74561;BME280;62979;55.720;37.606;2022-10-17T07:51:01;100512.34;;;9.17;51.52
74561;BME280;62979;55.720;37.606;2022-10-17T07:53:29;100517.63;;;9.10;51.62
74561;BME280;62979;55.720;37.606;2022-10-17T07:55:56;100501.06;;;9.11;51.87
74561;BME280;62979;55.720;37.606;2022-10-17T07:58:25;100487.09;;;9.16;51.81
74561;BME280;62979;55.720;37.606;2022-10-17T08:00:53;100486.25;;;9.16;51.95
74561;BME280;62979;55.720;37.606;2022-10-17T08:03:20;100512.38;;;9.07;52.29
74561;BME280;62979;55.720;37.606;2022-10-17T08:05:47;100511.56;;;9.00;54.06
74561;BME280;62979;55.720;37.606;2022-10-17T08:08:14;100510.75;;;8.87;55.40
74561;BME280;62979;55.720;37.606;2022-10-17T08:10:41;100476.88;;;8.79;59.04
74561;BME280;62979;55.720;37.606;2022-10-17T08:13:08;100481.28;;;8.65;59.36
74561;BME280;62979;55.720;37.606;2022-10-17T08:15:36;100472.66;;;8.31;65.10
74561;BME280;62979;55.720;37.606;2022-10-17T08:18:04;100483.16;;;8.06;64.06
74561;BME280;62979;55.720;37.606;2022-10-17T08:20:31;100451.03;;;8.00;64.98
74561;BME280;62979;55.720;37.606;2022-10-17T08:22:58;100484.03;;;8.04;64.91
74561;BME280;62979;55.720;37.606;2022-10-17T08:25:25;100497.94;;;7.93;62.78
74561;BME280;62979;55.720;37.606;2022-10-17T08:27:52;100488.38;;;7.96;63.50
74561;BME280;62979;55.720;37.606;2022-10-17T08:30:19;100479.69;;;8.01;63.18
74561;BME280;62979;55.720;37.606;2022-10-17T08:32:47;100468.38;;;8.07;62.96
74561;BME280;62979;55.720;37.606;2022-10-17T08:35:14;100472.72;;;8.15;64.51
74561;BME280;62979;55.720;37.606;2022-10-17T08:37:41;100500.50;;;8.18;63.27
74561;BME280;62979;55.720;37.606;2022-10-17T08:40:14;100495.28;;;8.23;63.56
74561;BME280;62979;55.720;37.606;2022-10-17T08:43:04;100483.13;;;8.28;63.81
74561;BME280;62979;55.720;37.606;2022-10-17T08:45:46;100474.41;;;8.26;62.01
74561;BME280;62979;55.720;37.606;2022-10-17T08:48:21;100474.41;;;8.32;62.24
74561;BME280;62979;55.720;37.606;2022-10-17T08:50:53;100451.00;;;8.15;61.47
74561;BME280;62979;55.720;37.606;2022-10-17T08:53:28;100504.00;;;8.12;61.87
74561;BME280;62979;55.720;37.606;2022-10-17T08:56:05;100471.84;;;8.18;62.48
74561;BME280;62979;55.720;37.606;2022-10-17T08:58:41;100491.81;;;8.21;61.89
74561;BME280;62979;55.720;37.606;2022-10-17T09:01:16;100494.38;;;8.33;62.29
74561;BME280;62979;55.720;37.606;2022-10-17T09:04:15;100499.59;;;8.38;62.03
74561;BME280;62979;55.720;37.606;2022-10-17T09:07:05;100477.91;;;8.28;61.95
74561;BME280;62979;55.720;37.606;2022-10-17T09:09:43;100497.03;;;8.27;65.87
74561;BME280;62979;55.720;37.606;2022-10-17T09:12:22;100477.91;;;8.22;67.38
74561;BME280;62979;55.720;37.606;2022-10-17T09:15:25;100467.53;;;8.06;68.59
74561;BME280;62979;55.720;37.606;2022-10-17T09:18:02;100478.81;;;8.05;69.73
74561;BME280;62979;55.720;37.606;2022-10-17T09:20:40;100486.66;;;7.88;71.17
74561;BME280;62979;55.720;37.606;2022-10-17T09:23:12;100482.31;;;7.80;73.24
74561;BME280;62979;55.720;37.606;2022-10-17T09:25:44;100486.66;;;7.71;74.12
74561;BME280;62979;55.720;37.606;2022-10-17T09:28:17;100486.63;;;7.78;74.83
74561;BME280;62979;55.720;37.606;2022-10-17T09:30:55;100504.00;;;7.60;72.41
74561;BME280;62979;55.720;37.606;2022-10-17T09:33:26;100494.44;;;7.48;75.11
74561;BME280;62979;55.720;37.606;2022-10-17T09:35:57;100501.41;;;7.62;76.50
74561;BME280;62979;55.720;37.606;2022-10-17T09:38:38;100487.53;;;7.61;75.28
74561;BME280;62979;55.720;37.606;2022-10-17T09:41:14;100485.78;;;7.62;75.33
74561;BME280;62979;55.720;37.606;2022-10-17T09:43:44;100479.69;;;7.55;75.11
74561;BME280;62979;55.720;37.606;2022-10-17T09:46:18;100461.50;;;7.60;75.42
74561;BME280;62979;55.720;37.606;2022-10-17T09:48:54;100458.00;;;7.65;77.51
74561;BME280;62979;55.720;37.606;2022-10-17T09:51:29;100469.28;;;7.55;75.98
74561;BME280;62979;55.720;37.606;2022-10-17T09:54:02;100471.91;;;7.60;75.36
74561;BME280;62979;55.720;37.606;2022-10-17T09:56:57;100446.75;;;7.66;75.20
74561;BME280;62979;55.720;37.606;2022-10-17T09:59:31;100454.53;;;7.69;73.56
74561;BME280;62979;55.720;37.606;2022-10-17T10:02:21;100461.50;;;7.57;73.19
74561;BME280;62979;55.720;37.606;2022-10-17T10:04:58;100470.16;;;7.56;73.07
74561;BME280;62979;55.720;37.606;2022-10-17T10:07:30;100452.81;;;7.59;73.08
74561;BME280;62979;55.720;37.606;2022-10-17T10:09:59;100452.84;;;7.61;72.43
74561;BME280;62979;55.720;37.606;2022-10-17T10:12:31;100433.75;;;7.59;72.52
74561;BME280;62979;55.720;37.606;2022-10-17T10:14:59;100432.84;;;7.60;72.20
74561;BME280;62979;55.720;37.606;2022-10-17T10:17:33;100448.47;;;7.52;72.53
74561;BME280;62979;55.720;37.606;2022-10-17T10:20:24;100445.00;;;7.62;72.83
74561;BME280;62979;55.720;37.606;2022-10-17T10:23:06;100412.91;;;7.60;72.35
74561;BME280;62979;55.720;37.606;2022-10-17T10:25:48;100417.25;;;7.64;72.24
74561;BME280;62979;55.720;37.606;2022-10-17T10:28:22;100409.44;;;7.66;72.05
74561;BME280;62979;55.720;37.606;2022-10-17T10:30:54;100418.09;;;7.76;71.94
74561;BME280;62979;55.720;37.606;2022-10-17T10:33:25;100399.88;;;7.76;72.01
74561;BME280;62979;55.720;37.606;2022-10-17T10:35:56;100396.41;;;7.78;71.63
74561;BME280;62979;55.720;37.606;2022-10-17T10:38:28;100405.03;;;7.85;71.56
74561;BME280;62979;55.720;37.606;2022-10-17T10:41:02;100395.53;;;7.71;71.73
74561;BME280;62979;55.720;37.606;2022-10-17T10:43:34;100379.88;;;7.84;71.99
74561;BME280;62979;55.720;37.606;2022-10-17T10:46:06;100393.78;;;7.83;71.57
74561;BME280;62979;55.720;37.606;2022-10-17T10:48:50;100399.00;;;7.86;71.83
74561;BME280;62979;55.720;37.606;2022-10-17T10:51:23;100401.56;;;7.92;71.67
74561;BME280;62979;55.720;37.606;2022-10-17T10:54:14;100397.22;;;7.89;71.75
74561;BME280;62979;55.720;37.606;2022-10-17T10:56:50;100384.19;;;7.94;71.96
74561;BME280;62979;55.720;37.606;2022-10-17T10:59:22;100373.78;;;7.96;71.65
74561;BME280;62979;55.720;37.606;2022-10-17T11:01:58;100359.88;;;8.07;71.89
74561;BME280;62979;55.720;37.606;2022-10-17T11:04:38;100345.97;;;8.05;71.38
74561;BME280;62979;55.720;37.606;2022-10-17T11:07:20;100353.78;;;8.05;71.10
74561;BME280;62979;55.720;37.606;2022-10-17T11:09:58;100368.53;;;8.06;71.41
74561;BME280;62979;55.720;37.606;2022-10-17T11:12:35;100365.94;;;7.97;71.05
74561;BME280;62979;55.720;37.606;2022-10-17T11:15:15;100362.47;;;8.01;71.46
74561;BME280;62979;55.720;37.606;2022-10-17T11:17:53;100360.69;;;8.17;71.25
74561;BME280;62979;55.720;37.606;2022-10-17T11:20:31;100352.03;;;8.15;71.08
74561;BME280;62979;55.720;37.606;2022-10-17T11:23:15;100356.31;;;8.21;70.83
74561;BME280;62979;55.720;37.606;2022-10-17T11:25:49;100362.41;;;8.24;71.29
74561;BME280;62979;55.720;37.606;2022-10-17T11:28:21;100366.75;;;8.27;71.54
74561;BME280;62979;55.720;37.606;2022-10-17T11:30:53;100348.44;;;8.39;71.75
74561;BME280;62979;55.720;37.606;2022-10-17T11:33:40;100341.50;;;8.44;71.14
74561;BME280;62979;55.720;37.606;2022-10-17T11:36:11;100349.25;;;8.55;71.15
74561;BME280;62979;55.720;37.606;2022-10-17T11:38:46;100356.22;;;8.51;71.28
74561;BME280;62979;55.720;37.606;2022-10-17T11:41:21;100358.88;;;8.34;71.65
74561;BME280;62979;55.720;37.606;2022-10-17T11:43:57;100364.13;;;8.27;71.76
74561;BME280;62979;55.720;37.606;2022-10-17T11:46:29;100348.50;;;8.25;72.19
74561;BME280;62979;55.720;37.606;2022-10-17T11:49:06;100340.66;;;8.24;72.27
74561;BME280;62979;55.720;37.606;2022-10-17T11:51:42;100345.06;;;8.15;72.91
74561;BME280;62979;55.720;37.606;2022-10-17T11:54:15;100338.09;;;8.19;72.91
74561;BME280;62979;55.720;37.606;2022-10-17T11:57:08;100325.06;;;8.22;72.66
74561;BME280;62979;55.720;37.606;2022-10-17T11:59:52;100322.38;;;8.33;72.84
74561;BME280;62979;55.720;37.606;2022-10-17T12:02:34;100319.81;;;8.24;72.46
74561;BME280;62979;55.720;37.606;2022-10-17T12:05:16;100330.25;;;8.24;73.10
74561;BME280;62979;55.720;37.606;2022-10-17T12:07:55;100313.81;;;8.15;73.38
74561;BME280;62979;55.720;37.606;2022-10-17T12:10:40;100302.50;;;8.17;73.21
74561;BME280;62979;55.720;37.606;2022-10-17T12:13:51;100301.63;;;8.21;73.68
74561;BME280;62979;55.720;37.606;2022-10-17T12:16:43;100319.81;;;8.24;73.46
74561;BME280;62979;55.720;37.606;2022-10-17T12:19:22;100295.53;;;8.25;73.32
74561;BME280;62979;55.720;37.606;2022-10-17T12:21:58;100305.94;;;8.22;73.63
74561;BME280;62979;55.720;37.606;2022-10-17T12:24:36;100308.53;;;8.22;73.77
74561;BME280;62979;55.720;37.606;2022-10-17T12:27:21;100297.22;;;8.29;73.85
74561;BME280;62979;55.720;37.606;2022-10-17T12:29:59;100278.09;;;8.34;73.81
74561;BME280;62979;55.720;37.606;2022-10-17T12:32:28;100288.50;;;8.36;73.39
74561;BME280;62979;55.720;37.606;2022-10-17T12:34:56;100281.59;;;8.32;73.61
74561;BME280;62979;55.720;37.606;2022-10-17T12:38:01;100293.72;;;8.39;74.13
74561;BME280;62979;55.720;37.606;2022-10-17T12:40:57;100298.94;;;8.44;73.80
74561;BME280;62979;55.720;37.606;2022-10-17T12:49:38;100314.47;;;8.53;73.64
74561;BME280;62979;55.720;37.606;2022-10-17T12:52:25;100298.91;;;8.47;73.91
74561;BME280;62979;55.720;37.606;2022-10-17T12:55:05;100311.00;;;8.55;73.88
74561;BME280;62979;55.720;37.606;2022-10-17T12:57:42;100314.47;;;8.53;73.58
74561;BME280;62979;55.720;37.606;2022-10-17T13:00:22;100336.19;;;8.55;73.88
74561;BME280;62979;55.720;37.606;2022-10-17T13:03:02;100342.28;;;8.55;73.48
74561;BME280;62979;55.720;37.606;2022-10-17T13:05:34;100351.03;;;8.45;73.96
74561;BME280;62979;55.720;37.606;2022-10-17T13:08:05;100344.91;;;8.52;73.92
74561;BME280;62979;55.720;37.606;2022-10-17T13:10:40;100348.34;;;8.59;73.77
74561;BME280;62979;55.720;37.606;2022-10-17T13:13:14;100370.94;;;8.62;73.63
74561;BME280;62979;55.720;37.606;2022-10-17T13:15:48;100386.63;;;8.48;73.95
74561;BME280;62979;55.720;37.606;2022-10-17T13:18:22;100393.63;;;8.40;74.27
74561;BME280;62979;55.720;37.606;2022-10-17T13:20:56;100378.00;;;8.36;74.34
74561;BME280;62979;55.720;37.606;2022-10-17T13:23:29;100396.22;;;8.49;74.57
74561;BME280;62979;55.720;37.606;2022-10-17T13:26:05;100381.41;;;8.54;74.18
74561;BME280;62979;55.720;37.606;2022-10-17T13:28:38;100399.63;;;8.62;74.19